sensor_id;sensor_type;location;lat;lon;timestamp;P1;durP1;ratioP1;P2;durP2;ratioP2
44143;SDS011;68165;51.920;4.492;2023-03-31T00:00:25;21.20;;;2.33;;
44143;SDS011;68165;51.920;4.492;2023-03-31T00:02:51;10.23;;;2.05;;
44143;SDS011;68165;51.920;4.492;2023-03-31T00:05:18;11.77;;;2.25;;
44143;SDS011;68165;51.920;4.492;2023-03-31T00:07:45;7.93;;;2.00;;
44143;SDS011;68165;51.920;4.492;2023-03-31T00:10:12;12.82;;;2.20;;
44143;SDS011;68165;51.920;4.492;2023-03-31T00:12:38;20.90;;;2.80;;
44143;SDS011;68165;51.920;4.492;2023-03-31T00:15:04;14.25;;;2.58;;
44143;SDS011;68165;51.920;4.492;2023-03-31T00:17:31;9.18;;;2.10;;
44143;SDS011;68165;51.920;4.492;2023-03-31T00:19:58;7.00;;;2.15;;
44143;SDS011;68165;51.920;4.492;2023-03-31T00:22:29;13.55;;;2.03;;
44143;SDS011;68165;51.920;4.492;2023-03-31T00:24:55;14.82;;;2.63;;
44143;SDS011;68165;51.920;4.492;2023-03-31T00:27:21;12.43;;;1.90;;
44143;SDS011;68165;51.920;4.492;2023-03-31T00:29:47;8.57;;;1.90;;
44143;SDS011;68165;51.920;4.492;2023-03-31T00:32:14;9.70;;;2.10;;
44143;SDS011;68165;51.920;4.492;2023-03-31T00:34:40;10.13;;;2.25;;
44143;SDS011;68165;51.920;4.492;2023-03-31T00:37:05;14.38;;;2.08;;
44143;SDS011;68165;51.920;4.492;2023-03-31T00:39:33;15.45;;;2.22;;
44143;SDS011;68165;51.920;4.492;2023-03-31T00:42:01;10.93;;;2.20;;
44143;SDS011;68165;51.920;4.492;2023-03-31T00:44:28;12.65;;;2.13;;
44143;SDS011;68165;51.920;4.492;2023-03-31T00:47:16;10.48;;;2.17;;
44143;SDS011;68165;51.920;4.492;2023-03-31T00:49:47;11.38;;;1.88;;
44143;SDS011;68165;51.920;4.492;2023-03-31T00:52:22;15.98;;;1.88;;
44143;SDS011;68165;51.920;4.492;2023-03-31T00:54:55;11.57;;;1.50;;
44143;SDS011;68165;51.920;4.492;2023-03-31T00:57:26;12.25;;;2.00;;
44143;SDS011;68165;51.920;4.492;2023-03-31T00:59:56;8.77;;;1.83;;
44143;SDS011;68165;51.920;4.492;2023-03-31T01:02:36;9.23;;;1.85;;
44143;SDS011;68165;51.920;4.492;2023-03-31T01:05:05;10.77;;;2.17;;
44143;SDS011;68165;51.920;4.492;2023-03-31T01:07:42;14.30;;;2.50;;
44143;SDS011;68165;51.920;4.492;2023-03-31T01:10:10;12.57;;;2.80;;
44143;SDS011;68165;51.920;4.492;2023-03-31T01:12:37;13.35;;;2.80;;
44143;SDS011;68165;51.920;4.492;2023-03-31T01:15:06;9.95;;;1.70;;
44143;SDS011;68165;51.920;4.492;2023-03-31T01:17:35;15.80;;;2.20;;
44143;SDS011;68165;51.920;4.492;2023-03-31T01:25:44;11.00;;;1.90;;
44143;SDS011;68165;51.920;4.492;2023-03-31T01:31:09;17.42;;;2.45;;
44143;SDS011;68165;51.920;4.492;2023-03-31T01:33:50;16.10;;;2.65;;
44143;SDS011;68165;51.920;4.492;2023-03-31T01:42:58;11.57;;;2.10;;
44143;SDS011;68165;51.920;4.492;2023-03-31T01:48:16;15.45;;;3.47;;
44143;SDS011;68165;51.920;4.492;2023-03-31T01:50:57;13.73;;;2.65;;
44143;SDS011;68165;51.920;4.492;2023-03-31T01:53:47;12.50;;;2.00;;
44143;SDS011;68165;51.920;4.492;2023-03-31T01:56:24;20.15;;;2.88;;
44143;SDS011;68165;51.920;4.492;2023-03-31T01:58:58;15.70;;;2.33;;
44143;SDS011;68165;51.920;4.492;2023-03-31T02:01:48;20.25;;;3.78;;
44143;SDS011;68165;51.920;4.492;2023-03-31T02:04:42;20.13;;;2.75;;
44143;SDS011;68165;51.920;4.492;2023-03-31T02:07:14;11.45;;;2.65;;
44143;SDS011;68165;51.920;4.492;2023-03-31T02:09:49;16.08;;;2.97;;
44143;SDS011;68165;51.920;4.492;2023-03-31T02:12:20;8.07;;;2.53;;
44143;SDS011;68165;51.920;4.492;2023-03-31T02:14:49;14.20;;;2.55;;
44143;SDS011;68165;51.920;4.492;2023-03-31T02:17:18;14.82;;;2.30;;
44143;SDS011;68165;51.920;4.492;2023-03-31T02:19:54;10.32;;;2.55;;
44143;SDS011;68165;51.920;4.492;2023-03-31T02:22:23;11.70;;;2.85;;
44143;SDS011;68165;51.920;4.492;2023-03-31T02:24:51;10.55;;;3.30;;
44143;SDS011;68165;51.920;4.492;2023-03-31T02:27:25;16.33;;;2.78;;
44143;SDS011;68165;51.920;4.492;2023-03-31T02:29:55;16.85;;;3.53;;
44143;SDS011;68165;51.920;4.492;2023-03-31T02:32:23;10.02;;;2.85;;
44143;SDS011;68165;51.920;4.492;2023-03-31T02:34:51;16.60;;;2.53;;
44143;SDS011;68165;51.920;4.492;2023-03-31T02:37:17;22.45;;;2.80;;
44143;SDS011;68165;51.920;4.492;2023-03-31T02:39:43;12.90;;;2.55;;
44143;SDS011;68165;51.920;4.492;2023-03-31T02:42:11;14.05;;;2.55;;
44143;SDS011;68165;51.920;4.492;2023-03-31T02:44:37;16.42;;;3.05;;
44143;SDS011;68165;51.920;4.492;2023-03-31T02:47:04;13.32;;;2.17;;
44143;SDS011;68165;51.920;4.492;2023-03-31T02:49:32;20.23;;;2.20;;
44143;SDS011;68165;51.920;4.492;2023-03-31T02:54:57;13.20;;;2.25;;
44143;SDS011;68165;51.920;4.492;2023-03-31T03:00:22;12.43;;;2.17;;
44143;SDS011;68165;51.920;4.492;2023-03-31T03:16:05;7.25;;;1.25;;
44143;SDS011;68165;51.920;4.492;2023-03-31T03:18:34;12.93;;;1.58;;
44143;SDS011;68165;51.920;4.492;2023-03-31T03:21:00;7.75;;;1.70;;
44143;SDS011;68165;51.920;4.492;2023-03-31T03:23:26;6.50;;;1.77;;
44143;SDS011;68165;51.920;4.492;2023-03-31T03:25:51;8.10;;;1.45;;
44143;SDS011;68165;51.920;4.492;2023-03-31T03:28:16;16.05;;;2.25;;
44143;SDS011;68165;51.920;4.492;2023-03-31T03:30:42;6.07;;;1.38;;
44143;SDS011;68165;51.920;4.492;2023-03-31T03:33:07;13.20;;;2.33;;
44143;SDS011;68165;51.920;4.492;2023-03-31T03:35:33;6.40;;;1.85;;
44143;SDS011;68165;51.920;4.492;2023-03-31T03:37:59;7.90;;;2.30;;
44143;SDS011;68165;51.920;4.492;2023-03-31T03:40:25;16.05;;;2.38;;
44143;SDS011;68165;51.920;4.492;2023-03-31T03:42:50;13.05;;;3.22;;
44143;SDS011;68165;51.920;4.492;2023-03-31T03:45:15;10.68;;;3.33;;
44143;SDS011;68165;51.920;4.492;2023-03-31T03:47:41;13.88;;;3.08;;
44143;SDS011;68165;51.920;4.492;2023-03-31T03:50:06;13.00;;;2.72;;
44143;SDS011;68165;51.920;4.492;2023-03-31T03:52:32;15.18;;;2.53;;
44143;SDS011;68165;51.920;4.492;2023-03-31T03:54:59;10.85;;;2.75;;
44143;SDS011;68165;51.920;4.492;2023-03-31T03:57:26;11.40;;;2.50;;
44143;SDS011;68165;51.920;4.492;2023-03-31T03:59:51;13.45;;;2.80;;
44143;SDS011;68165;51.920;4.492;2023-03-31T04:02:16;11.80;;;3.33;;
44143;SDS011;68165;51.920;4.492;2023-03-31T04:04:42;23.70;;;3.60;;
44143;SDS011;68165;51.920;4.492;2023-03-31T04:07:07;11.88;;;2.53;;
44143;SDS011;68165;51.920;4.492;2023-03-31T04:09:33;6.95;;;2.22;;
44143;SDS011;68165;51.920;4.492;2023-03-31T04:11:58;15.48;;;3.05;;
44143;SDS011;68165;51.920;4.492;2023-03-31T04:14:23;15.38;;;3.17;;
44143;SDS011;68165;51.920;4.492;2023-03-31T04:16:50;11.27;;;2.63;;
44143;SDS011;68165;51.920;4.492;2023-03-31T04:19:15;16.35;;;3.20;;
44143;SDS011;68165;51.920;4.492;2023-03-31T04:21:41;11.05;;;2.75;;
44143;SDS011;68165;51.920;4.492;2023-03-31T04:24:12;9.65;;;2.20;;
44143;SDS011;68165;51.920;4.492;2023-03-31T04:26:45;11.90;;;2.67;;
44143;SDS011;68165;51.920;4.492;2023-03-31T04:29:15;10.45;;;2.60;;
44143;SDS011;68165;51.920;4.492;2023-03-31T04:31:41;9.07;;;2.25;;
44143;SDS011;68165;51.920;4.492;2023-03-31T04:34:08;13.02;;;2.67;;
44143;SDS011;68165;51.920;4.492;2023-03-31T04:36:46;17.85;;;2.97;;
44143;SDS011;68165;51.920;4.492;2023-03-31T04:39:17;7.45;;;2.60;;
44143;SDS011;68165;51.920;4.492;2023-03-31T04:41:57;11.77;;;2.65;;
44143;SDS011;68165;51.920;4.492;2023-03-31T04:44:23;12.73;;;2.35;;
44143;SDS011;68165;51.920;4.492;2023-03-31T04:46:49;10.68;;;2.47;;
44143;SDS011;68165;51.920;4.492;2023-03-31T04:49:14;11.60;;;2.47;;
44143;SDS011;68165;51.920;4.492;2023-03-31T04:51:40;8.43;;;2.78;;
44143;SDS011;68165;51.920;4.492;2023-03-31T04:54:05;9.93;;;2.75;;
44143;SDS011;68165;51.920;4.492;2023-03-31T04:56:31;11.07;;;2.03;;
44143;SDS011;68165;51.920;4.492;2023-03-31T04:58:56;10.85;;;2.20;;
44143;SDS011;68165;51.920;4.492;2023-03-31T05:01:22;11.60;;;2.63;;
44143;SDS011;68165;51.920;4.492;2023-03-31T05:03:47;7.28;;;2.45;;
44143;SDS011;68165;51.920;4.492;2023-03-31T05:06:13;12.48;;;2.38;;
44143;SDS011;68165;51.920;4.492;2023-03-31T05:08:40;11.55;;;1.95;;
44143;SDS011;68165;51.920;4.492;2023-03-31T05:11:05;12.00;;;2.30;;
44143;SDS011;68165;51.920;4.492;2023-03-31T05:13:31;7.25;;;1.65;;
44143;SDS011;68165;51.920;4.492;2023-03-31T05:15:56;9.63;;;1.83;;
44143;SDS011;68165;51.920;4.492;2023-03-31T05:18:22;6.63;;;1.85;;
44143;SDS011;68165;51.920;4.492;2023-03-31T05:20:47;6.82;;;1.95;;
44143;SDS011;68165;51.920;4.492;2023-03-31T05:23:13;5.28;;;1.33;;
44143;SDS011;68165;51.920;4.492;2023-03-31T05:25:39;7.28;;;1.55;;
44143;SDS011;68165;51.920;4.492;2023-03-31T06:04:16;7.10;;;1.20;;
44143;SDS011;68165;51.920;4.492;2023-03-31T06:11:52;4.35;;;1.15;;
44143;SDS011;68165;51.920;4.492;2023-03-31T06:14:17;6.03;;;1.75;;
44143;SDS011;68165;51.920;4.492;2023-03-31T06:16:43;6.85;;;1.38;;
44143;SDS011;68165;51.920;4.492;2023-03-31T06:19:09;8.85;;;1.30;;
44143;SDS011;68165;51.920;4.492;2023-03-31T06:21:35;14.48;;;1.67;;
44143;SDS011;68165;51.920;4.492;2023-03-31T06:24:00;9.23;;;1.48;;
44143;SDS011;68165;51.920;4.492;2023-03-31T06:26:26;5.22;;;1.40;;
44143;SDS011;68165;51.920;4.492;2023-03-31T06:28:53;6.85;;;1.73;;
44143;SDS011;68165;51.920;4.492;2023-03-31T06:31:20;5.10;;;1.17;;
44143;SDS011;68165;51.920;4.492;2023-03-31T06:33:47;5.28;;;1.92;;
44143;SDS011;68165;51.920;4.492;2023-03-31T06:36:14;6.60;;;1.20;;
44143;SDS011;68165;51.920;4.492;2023-03-31T06:38:41;6.88;;;1.30;;
44143;SDS011;68165;51.920;4.492;2023-03-31T06:41:07;6.68;;;1.42;;
44143;SDS011;68165;51.920;4.492;2023-03-31T06:43:35;4.93;;;1.33;;
44143;SDS011;68165;51.920;4.492;2023-03-31T06:46:01;13.85;;;1.60;;
44143;SDS011;68165;51.920;4.492;2023-03-31T06:48:26;6.18;;;1.55;;
44143;SDS011;68165;51.920;4.492;2023-03-31T06:50:54;5.10;;;1.45;;
44143;SDS011;68165;51.920;4.492;2023-03-31T06:53:20;6.70;;;2.05;;
44143;SDS011;68165;51.920;4.492;2023-03-31T06:55:46;7.07;;;1.70;;
44143;SDS011;68165;51.920;4.492;2023-03-31T06:58:12;11.40;;;1.95;;
44143;SDS011;68165;51.920;4.492;2023-03-31T07:00:38;8.45;;;2.38;;
44143;SDS011;68165;51.920;4.492;2023-03-31T07:03:05;6.88;;;2.40;;
44143;SDS011;68165;51.920;4.492;2023-03-31T07:05:32;13.20;;;2.75;;
44143;SDS011;68165;51.920;4.492;2023-03-31T07:07:58;7.90;;;2.38;;
44143;SDS011;68165;51.920;4.492;2023-03-31T07:10:25;7.25;;;2.03;;
44143;SDS011;68165;51.920;4.492;2023-03-31T07:12:52;5.68;;;1.98;;
44143;SDS011;68165;51.920;4.492;2023-03-31T07:15:18;11.82;;;2.50;;
44143;SDS011;68165;51.920;4.492;2023-03-31T07:17:43;8.15;;;2.20;;
44143;SDS011;68165;51.920;4.492;2023-03-31T07:20:12;11.40;;;2.28;;
44143;SDS011;68165;51.920;4.492;2023-03-31T07:22:43;8.15;;;2.70;;
44143;SDS011;68165;51.920;4.492;2023-03-31T07:25:09;18.73;;;3.20;;
44143;SDS011;68165;51.920;4.492;2023-03-31T07:27:36;18.15;;;4.18;;
44143;SDS011;68165;51.920;4.492;2023-03-31T07:30:06;16.23;;;3.05;;
44143;SDS011;68165;51.920;4.492;2023-03-31T07:32:32;18.40;;;3.55;;
44143;SDS011;68165;51.920;4.492;2023-03-31T07:34:58;13.73;;;2.58;;
44143;SDS011;68165;51.920;4.492;2023-03-31T07:37:23;11.68;;;2.92;;
44143;SDS011;68165;51.920;4.492;2023-03-31T07:39:49;14.95;;;2.55;;
44143;SDS011;68165;51.920;4.492;2023-03-31T07:42:15;12.00;;;2.53;;
44143;SDS011;68165;51.920;4.492;2023-03-31T07:44:40;13.55;;;2.00;;
44143;SDS011;68165;51.920;4.492;2023-03-31T07:47:05;14.05;;;2.95;;
44143;SDS011;68165;51.920;4.492;2023-03-31T07:49:31;13.23;;;2.17;;
44143;SDS011;68165;51.920;4.492;2023-03-31T07:51:58;13.35;;;3.28;;
44143;SDS011;68165;51.920;4.492;2023-03-31T07:54:23;15.70;;;2.58;;
44143;SDS011;68165;51.920;4.492;2023-03-31T07:56:50;17.00;;;2.83;;
44143;SDS011;68165;51.920;4.492;2023-03-31T07:59:15;13.05;;;2.53;;
44143;SDS011;68165;51.920;4.492;2023-03-31T08:01:42;12.75;;;2.50;;
44143;SDS011;68165;51.920;4.492;2023-03-31T08:04:09;11.60;;;2.70;;
44143;SDS011;68165;51.920;4.492;2023-03-31T08:06:36;22.33;;;2.92;;
44143;SDS011;68165;51.920;4.492;2023-03-31T08:09:01;9.95;;;2.00;;
44143;SDS011;68165;51.920;4.492;2023-03-31T08:11:28;10.57;;;2.00;;
44143;SDS011;68165;51.920;4.492;2023-03-31T08:13:54;16.58;;;2.40;;
44143;SDS011;68165;51.920;4.492;2023-03-31T08:16:20;12.50;;;2.25;;
44143;SDS011;68165;51.920;4.492;2023-03-31T08:18:45;11.70;;;2.70;;
44143;SDS011;68165;51.920;4.492;2023-03-31T08:21:11;11.88;;;2.80;;
44143;SDS011;68165;51.920;4.492;2023-03-31T08:23:36;14.02;;;3.47;;
44143;SDS011;68165;51.920;4.492;2023-03-31T08:28:38;16.48;;;2.95;;
44143;SDS011;68165;51.920;4.492;2023-03-31T08:31:04;16.55;;;4.05;;
44143;SDS011;68165;51.920;4.492;2023-03-31T08:33:31;21.85;;;3.97;;
44143;SDS011;68165;51.920;4.492;2023-03-31T08:36:00;19.20;;;2.95;;
44143;SDS011;68165;51.920;4.492;2023-03-31T08:38:32;20.75;;;3.53;;
44143;SDS011;68165;51.920;4.492;2023-03-31T08:41:03;28.05;;;4.10;;
44143;SDS011;68165;51.920;4.492;2023-03-31T08:43:32;14.80;;;3.60;;
44143;SDS011;68165;51.920;4.492;2023-03-31T08:46:04;14.05;;;3.17;;
44143;SDS011;68165;51.920;4.492;2023-03-31T08:48:38;17.48;;;3.40;;
44143;SDS011;68165;51.920;4.492;2023-03-31T08:53:48;13.57;;;3.35;;
44143;SDS011;68165;51.920;4.492;2023-03-31T08:56:21;18.90;;;2.90;;
44143;SDS011;68165;51.920;4.492;2023-03-31T08:58:50;20.08;;;2.95;;
44143;SDS011;68165;51.920;4.492;2023-03-31T09:04:20;16.95;;;3.03;;
44143;SDS011;68165;51.920;4.492;2023-03-31T09:10:03;16.08;;;3.17;;
44143;SDS011;68165;51.920;4.492;2023-03-31T09:20:49;16.83;;;3.95;;
44143;SDS011;68165;51.920;4.492;2023-03-31T09:26:01;17.40;;;3.10;;
44143;SDS011;68165;51.920;4.492;2023-03-31T09:28:38;21.25;;;3.40;;
44143;SDS011;68165;51.920;4.492;2023-03-31T09:31:06;17.15;;;2.90;;
44143;SDS011;68165;51.920;4.492;2023-03-31T09:33:39;14.77;;;2.75;;
44143;SDS011;68165;51.920;4.492;2023-03-31T09:36:16;14.35;;;3.08;;
44143;SDS011;68165;51.920;4.492;2023-03-31T09:38:43;27.13;;;3.10;;
44143;SDS011;68165;51.920;4.492;2023-03-31T09:41:10;17.50;;;2.65;;
44143;SDS011;68165;51.920;4.492;2023-03-31T09:43:38;18.90;;;2.10;;
44143;SDS011;68165;51.920;4.492;2023-03-31T09:49:05;21.27;;;4.03;;
44143;SDS011;68165;51.920;4.492;2023-03-31T09:51:40;10.15;;;2.05;;
44143;SDS011;68165;51.920;4.492;2023-03-31T09:57:22;18.23;;;3.38;;
44143;SDS011;68165;51.920;4.492;2023-03-31T09:59:56;15.60;;;3.28;;
44143;SDS011;68165;51.920;4.492;2023-03-31T10:02:33;14.60;;;2.53;;
44143;SDS011;68165;51.920;4.492;2023-03-31T10:05:02;17.17;;;2.90;;
44143;SDS011;68165;51.920;4.492;2023-03-31T10:07:30;19.55;;;3.08;;
44143;SDS011;68165;51.920;4.492;2023-03-31T10:09:56;11.52;;;2.38;;
44143;SDS011;68165;51.920;4.492;2023-03-31T10:12:24;13.77;;;2.50;;
44143;SDS011;68165;51.920;4.492;2023-03-31T10:14:53;24.50;;;3.20;;
44143;SDS011;68165;51.920;4.492;2023-03-31T10:17:35;14.05;;;2.42;;
44143;SDS011;68165;51.920;4.492;2023-03-31T10:20:26;15.93;;;3.00;;
44143;SDS011;68165;51.920;4.492;2023-03-31T10:23:00;14.88;;;2.25;;
44143;SDS011;68165;51.920;4.492;2023-03-31T10:25:28;18.30;;;2.90;;
44143;SDS011;68165;51.920;4.492;2023-03-31T10:27:54;18.30;;;2.90;;
44143;SDS011;68165;51.920;4.492;2023-03-31T10:30:22;18.25;;;2.83;;
44143;SDS011;68165;51.920;4.492;2023-03-31T10:32:50;21.08;;;3.55;;
44143;SDS011;68165;51.920;4.492;2023-03-31T10:35:26;20.27;;;3.08;;
44143;SDS011;68165;51.920;4.492;2023-03-31T10:38:13;14.05;;;2.70;;
44143;SDS011;68165;51.920;4.492;2023-03-31T10:40:51;16.67;;;4.00;;
44143;SDS011;68165;51.920;4.492;2023-03-31T10:43:19;16.80;;;3.30;;
44143;SDS011;68165;51.920;4.492;2023-03-31T10:45:54;19.73;;;3.97;;
44143;SDS011;68165;51.920;4.492;2023-03-31T10:48:28;14.85;;;2.95;;
44143;SDS011;68165;51.920;4.492;2023-03-31T10:50:59;14.10;;;2.22;;
44143;SDS011;68165;51.920;4.492;2023-03-31T10:53:29;12.15;;;2.70;;
44143;SDS011;68165;51.920;4.492;2023-03-31T11:04:04;11.02;;;2.42;;
44143;SDS011;68165;51.920;4.492;2023-03-31T11:07:01;15.35;;;2.30;;
44143;SDS011;68165;51.920;4.492;2023-03-31T11:12:22;17.20;;;2.95;;
44143;SDS011;68165;51.920;4.492;2023-03-31T11:14:53;15.50;;;2.10;;
44143;SDS011;68165;51.920;4.492;2023-03-31T11:22:41;13.15;;;2.13;;
44143;SDS011;68165;51.920;4.492;2023-03-31T11:31:13;10.23;;;2.42;;
44143;SDS011;68165;51.920;4.492;2023-03-31T11:36:21;9.43;;;1.83;;
44143;SDS011;68165;51.920;4.492;2023-03-31T11:42:00;7.60;;;1.63;;
44143;SDS011;68165;51.920;4.492;2023-03-31T11:44:31;6.90;;;1.90;;
44143;SDS011;68165;51.920;4.492;2023-03-31T11:47:06;6.95;;;1.45;;
44143;SDS011;68165;51.920;4.492;2023-03-31T11:52:06;4.90;;;1.13;;
44143;SDS011;68165;51.920;4.492;2023-03-31T11:54:50;10.23;;;1.63;;
44143;SDS011;68165;51.920;4.492;2023-03-31T11:57:36;9.05;;;1.88;;
44143;SDS011;68165;51.920;4.492;2023-03-31T12:02:50;13.45;;;1.80;;
44143;SDS011;68165;51.920;4.492;2023-03-31T12:05:24;13.15;;;2.17;;
44143;SDS011;68165;51.920;4.492;2023-03-31T12:18:36;15.05;;;2.70;;
44143;SDS011;68165;51.920;4.492;2023-03-31T12:21:06;10.38;;;2.15;;
44143;SDS011;68165;51.920;4.492;2023-03-31T12:23:40;17.23;;;2.72;;
44143;SDS011;68165;51.920;4.492;2023-03-31T12:28:58;16.85;;;2.72;;
44143;SDS011;68165;51.920;4.492;2023-03-31T12:31:28;13.67;;;2.60;;
44143;SDS011;68165;51.920;4.492;2023-03-31T12:34:01;9.65;;;1.92;;
44143;SDS011;68165;51.920;4.492;2023-03-31T12:36:38;9.38;;;2.53;;
44143;SDS011;68165;51.920;4.492;2023-03-31T12:55:30;4.53;;;1.20;;
44143;SDS011;68165;51.920;4.492;2023-03-31T13:01:14;6.50;;;1.13;;
44143;SDS011;68165;51.920;4.492;2023-03-31T13:11:38;7.70;;;1.57;;
44143;SDS011;68165;51.920;4.492;2023-03-31T13:14:12;8.38;;;1.90;;
44143;SDS011;68165;51.920;4.492;2023-03-31T13:16:43;8.13;;;1.35;;
44143;SDS011;68165;51.920;4.492;2023-03-31T13:19:11;8.70;;;1.52;;
44143;SDS011;68165;51.920;4.492;2023-03-31T13:21:59;3.95;;;1.25;;
44143;SDS011;68165;51.920;4.492;2023-03-31T13:24:27;8.02;;;1.40;;
44143;SDS011;68165;51.920;4.492;2023-03-31T13:26:55;14.48;;;1.83;;
44143;SDS011;68165;51.920;4.492;2023-03-31T13:29:25;6.80;;;1.42;;
44143;SDS011;68165;51.920;4.492;2023-03-31T13:32:04;5.05;;;1.60;;
44143;SDS011;68165;51.920;4.492;2023-03-31T13:46:14;11.68;;;2.40;;
44143;SDS011;68165;51.920;4.492;2023-03-31T13:49:02;5.13;;;1.42;;
44143;SDS011;68165;51.920;4.492;2023-03-31T13:52:03;10.00;;;2.50;;
44143;SDS011;68165;51.920;4.492;2023-03-31T14:03:22;4.53;;;1.30;;
44143;SDS011;68165;51.920;4.492;2023-03-31T14:06:29;8.15;;;1.30;;
44143;SDS011;68165;51.920;4.492;2023-03-31T14:09:05;8.32;;;1.73;;
44143;SDS011;68165;51.920;4.492;2023-03-31T14:11:34;9.23;;;1.80;;
44143;SDS011;68165;51.920;4.492;2023-03-31T14:16:28;7.72;;;1.80;;
44143;SDS011;68165;51.920;4.492;2023-03-31T14:39:12;10.57;;;2.28;;
44143;SDS011;68165;51.920;4.492;2023-03-31T14:41:40;7.25;;;1.65;;
44143;SDS011;68165;51.920;4.492;2023-03-31T14:44:10;5.80;;;1.40;;
44143;SDS011;68165;51.920;4.492;2023-03-31T14:46:39;7.00;;;1.80;;
44143;SDS011;68165;51.920;4.492;2023-03-31T14:49:17;6.13;;;1.95;;
44143;SDS011;68165;51.920;4.492;2023-03-31T14:51:54;8.48;;;2.28;;
44143;SDS011;68165;51.920;4.492;2023-03-31T14:54:25;11.82;;;2.38;;
44143;SDS011;68165;51.920;4.492;2023-03-31T14:56:54;9.15;;;1.75;;
44143;SDS011;68165;51.920;4.492;2023-03-31T14:59:24;6.68;;;1.80;;
44143;SDS011;68165;51.920;4.492;2023-03-31T15:01:53;7.00;;;1.52;;
44143;SDS011;68165;51.920;4.492;2023-03-31T15:04:26;13.70;;;2.35;;
44143;SDS011;68165;51.920;4.492;2023-03-31T15:06:54;5.70;;;1.55;;
44143;SDS011;68165;51.920;4.492;2023-03-31T15:09:22;8.20;;;1.55;;
44143;SDS011;68165;51.920;4.492;2023-03-31T15:12:04;9.95;;;1.83;;
44143;SDS011;68165;51.920;4.492;2023-03-31T15:14:34;9.98;;;2.35;;
44143;SDS011;68165;51.920;4.492;2023-03-31T15:17:03;8.57;;;1.67;;
44143;SDS011;68165;51.920;4.492;2023-03-31T15:19:30;7.63;;;1.80;;
44143;SDS011;68165;51.920;4.492;2023-03-31T15:22:01;16.42;;;2.10;;
44143;SDS011;68165;51.920;4.492;2023-03-31T15:24:38;5.03;;;2.35;;
44143;SDS011;68165;51.920;4.492;2023-03-31T15:30:07;9.70;;;2.45;;
44143;SDS011;68165;51.920;4.492;2023-03-31T15:32:39;11.55;;;1.70;;
44143;SDS011;68165;51.920;4.492;2023-03-31T15:35:04;7.82;;;1.80;;
44143;SDS011;68165;51.920;4.492;2023-03-31T15:37:40;4.90;;;1.50;;
44143;SDS011;68165;51.920;4.492;2023-03-31T15:40:26;13.52;;;1.58;;
44143;SDS011;68165;51.920;4.492;2023-03-31T15:42:57;7.05;;;2.05;;
44143;SDS011;68165;51.920;4.492;2023-03-31T15:53:37;6.38;;;1.30;;
44143;SDS011;68165;51.920;4.492;2023-03-31T15:58:55;4.43;;;1.52;;
44143;SDS011;68165;51.920;4.492;2023-03-31T16:01:23;8.27;;;2.25;;
44143;SDS011;68165;51.920;4.492;2023-03-31T16:03:54;7.55;;;1.92;;
44143;SDS011;68165;51.920;4.492;2023-03-31T16:09:08;7.22;;;2.15;;
44143;SDS011;68165;51.920;4.492;2023-03-31T16:11:49;4.47;;;1.42;;
44143;SDS011;68165;51.920;4.492;2023-03-31T16:17:03;7.65;;;1.70;;
44143;SDS011;68165;51.920;4.492;2023-03-31T16:19:43;9.45;;;1.58;;
44143;SDS011;68165;51.920;4.492;2023-03-31T16:22:15;12.40;;;1.92;;
44143;SDS011;68165;51.920;4.492;2023-03-31T16:24:45;10.90;;;1.60;;
44143;SDS011;68165;51.920;4.492;2023-03-31T16:27:11;7.57;;;1.75;;
44143;SDS011;68165;51.920;4.492;2023-03-31T16:29:36;8.48;;;1.73;;
44143;SDS011;68165;51.920;4.492;2023-03-31T16:32:05;7.53;;;1.25;;
44143;SDS011;68165;51.920;4.492;2023-03-31T16:39:44;14.43;;;1.85;;
44143;SDS011;68165;51.920;4.492;2023-03-31T16:42:11;10.57;;;1.55;;
44143;SDS011;68165;51.920;4.492;2023-03-31T16:44:37;11.25;;;1.80;;
44143;SDS011;68165;51.920;4.492;2023-03-31T16:47:02;12.65;;;1.88;;
44143;SDS011;68165;51.920;4.492;2023-03-31T17:09:09;12.63;;;2.75;;
44143;SDS011;68165;51.920;4.492;2023-03-31T17:11:35;9.00;;;2.63;;
44143;SDS011;68165;51.920;4.492;2023-03-31T17:14:04;6.80;;;2.42;;
44143;SDS011;68165;51.920;4.492;2023-03-31T17:16:30;10.07;;;2.20;;
44143;SDS011;68165;51.920;4.492;2023-03-31T17:18:55;11.88;;;3.13;;
44143;SDS011;68165;51.920;4.492;2023-03-31T17:21:21;10.65;;;2.90;;
44143;SDS011;68165;51.920;4.492;2023-03-31T17:23:47;14.77;;;2.38;;
44143;SDS011;68165;51.920;4.492;2023-03-31T17:26:13;11.73;;;2.90;;
44143;SDS011;68165;51.920;4.492;2023-03-31T17:28:40;13.95;;;3.17;;
44143;SDS011;68165;51.920;4.492;2023-03-31T17:31:13;12.40;;;3.05;;
44143;SDS011;68165;51.920;4.492;2023-03-31T17:33:41;9.55;;;2.22;;
44143;SDS011;68165;51.920;4.492;2023-03-31T17:36:07;12.48;;;2.40;;
44143;SDS011;68165;51.920;4.492;2023-03-31T17:38:35;10.20;;;2.70;;
44143;SDS011;68165;51.920;4.492;2023-03-31T17:41:02;20.40;;;3.78;;
44143;SDS011;68165;51.920;4.492;2023-03-31T17:43:28;21.77;;;4.75;;
44143;SDS011;68165;51.920;4.492;2023-03-31T17:46:03;11.32;;;2.63;;
44143;SDS011;68165;51.920;4.492;2023-03-31T17:48:33;13.50;;;2.70;;
44143;SDS011;68165;51.920;4.492;2023-03-31T17:51:03;16.25;;;2.75;;
44143;SDS011;68165;51.920;4.492;2023-03-31T17:53:32;20.73;;;2.92;;
44143;SDS011;68165;51.920;4.492;2023-03-31T17:55:59;15.75;;;3.42;;
44143;SDS011;68165;51.920;4.492;2023-03-31T17:58:26;17.35;;;3.05;;
44143;SDS011;68165;51.920;4.492;2023-03-31T18:00:52;13.88;;;2.97;;
44143;SDS011;68165;51.920;4.492;2023-03-31T18:03:18;15.15;;;2.70;;
44143;SDS011;68165;51.920;4.492;2023-03-31T18:05:44;12.50;;;2.95;;
44143;SDS011;68165;51.920;4.492;2023-03-31T18:08:09;13.85;;;2.67;;
44143;SDS011;68165;51.920;4.492;2023-03-31T18:10:36;16.30;;;3.15;;
44143;SDS011;68165;51.920;4.492;2023-03-31T18:13:01;25.58;;;3.60;;
44143;SDS011;68165;51.920;4.492;2023-03-31T18:15:28;16.55;;;3.47;;
44143;SDS011;68165;51.920;4.492;2023-03-31T18:17:53;20.85;;;3.35;;
44143;SDS011;68165;51.920;4.492;2023-03-31T18:20:19;14.40;;;2.95;;
44143;SDS011;68165;51.920;4.492;2023-03-31T18:22:45;15.02;;;3.20;;
44143;SDS011;68165;51.920;4.492;2023-03-31T18:25:12;20.00;;;4.00;;
44143;SDS011;68165;51.920;4.492;2023-03-31T18:27:37;20.63;;;3.25;;
44143;SDS011;68165;51.920;4.492;2023-03-31T18:30:03;12.02;;;3.50;;
44143;SDS011;68165;51.920;4.492;2023-03-31T18:32:30;17.73;;;4.22;;
44143;SDS011;68165;51.920;4.492;2023-03-31T18:34:55;17.63;;;3.97;;
44143;SDS011;68165;51.920;4.492;2023-03-31T18:37:22;12.75;;;3.65;;
44143;SDS011;68165;51.920;4.492;2023-03-31T18:39:48;16.40;;;3.42;;
44143;SDS011;68165;51.920;4.492;2023-03-31T18:42:13;24.08;;;4.85;;
44143;SDS011;68165;51.920;4.492;2023-03-31T18:44:39;21.75;;;3.95;;
44143;SDS011;68165;51.920;4.492;2023-03-31T18:47:05;17.90;;;3.40;;
44143;SDS011;68165;51.920;4.492;2023-03-31T18:49:30;16.40;;;3.38;;
44143;SDS011;68165;51.920;4.492;2023-03-31T18:51:56;25.77;;;4.03;;
44143;SDS011;68165;51.920;4.492;2023-03-31T18:54:24;15.55;;;3.22;;
44143;SDS011;68165;51.920;4.492;2023-03-31T18:56:49;20.52;;;3.30;;
44143;SDS011;68165;51.920;4.492;2023-03-31T18:59:15;23.88;;;3.60;;
44143;SDS011;68165;51.920;4.492;2023-03-31T19:01:41;22.92;;;3.25;;
44143;SDS011;68165;51.920;4.492;2023-03-31T19:04:07;24.98;;;3.60;;
44143;SDS011;68165;51.920;4.492;2023-03-31T19:06:33;24.23;;;4.53;;
44143;SDS011;68165;51.920;4.492;2023-03-31T19:08:59;12.02;;;2.60;;
44143;SDS011;68165;51.920;4.492;2023-03-31T19:11:25;25.73;;;2.88;;
44143;SDS011;68165;51.920;4.492;2023-03-31T19:13:51;12.43;;;2.45;;
44143;SDS011;68165;51.920;4.492;2023-03-31T19:16:19;21.27;;;3.40;;
44143;SDS011;68165;51.920;4.492;2023-03-31T19:18:45;12.65;;;4.18;;